Weather Display Live

LIVE WEATHER, Rathlin Island , Northern Ireland , UK.
- Weather Data Uploaded via a WMR200 Weather Station -
-
Live Data More Data Mobile Radar AIS Tides Forecast Community Shipwrecks Tides round Rathlin Facebook

This page is updated from recent data collected by a DAVIS VANTAGE PRO weather station Use the Reload or Refresh facility on your browser to retrieve the latest data.



Weather report/warning/Metars

Eglinton / Londonderr, United Kingdom (EGAE) 55-03N 007-09W
Apr 05, 2020 - 03:50 PM EDT / 2020.04.05 1950 UTC
Wind: from the SSE (160 degrees) at 24 MPH (21 KT) gusting to 39 MPH (34 KT):0
Visibility: greater than 7 mile(s):0
Sky conditions: mostly cloudy
Temperature: 57 F (14 C)
Dew Point: 51 F (11 C)
Relative Humidity: 82%
Pressure (altimeter): 29.29 in. Hg (0992 hPa)
ob: EGAE 051950Z 16021G34KT 9999 FEW012 BKN022 14/11 Q0992
cycle: 20



Use the RELOAD facility on your browser to retrieve the latest data.

Click here for a daily update of the averages/extremes to date for the month
Created by "Weather Display" software version 10.37S at this start time/date 14:09:37 25/03/2020